Main page
METAR-TAF:

METAR-TAF

Airports :

Kunming Changshui International Airport

Kunming, China

latitude: 25-01N, longitude: 102-41E, elevation: 1892 m

Current weather observation

The report was made 28 minutes ago, at 13:00 UTC
Wind 14 kt from the West/Southwest
Temperature 22°C
Humidity 25%
Pressure 1015 hPa
Visibility 10 km or more
no clouds below 1500 m and no cumulonimbus

METAR: ZPPP 201300Z 24007MPS CAVOK 22/01 Q1015 NOSIG

Time: 21:28 (13:28 UTC)

Forecast

The report was made 6 hours and 19 minutes ago, at 07:09 UTC
Forecast valid from 20 at 12 UTC to 21 at 12 UTC
Wind 12 kt from the Southwest
Visibility 10 km or more
Few clouds at a height of 2600 ft

TAF: ZPPP 200709Z 2012/2112 23006MPS 9999 FEW026 TX28/2108Z TN16/2023Z

Weather observations and forecasts of more than 4000 airports (METAR and TAF reports).

The available stations are represented by yellow and red dots on the map.

Hover mouse over dot to see the name of the station.

Then click to see weather observations and forecasts.

To change the map : click on the green buttons with a black cross to zoom in, on the green button with a dash to zoom out, or on the green arrows for adjacent maps.


METAR-TAF: